Arcadia, Indiana
Current Conditions -  °F | °C
As of 6:55 AM on Friday 21 Nov 2014 (Local Time) from KTYQ Reporting Station
Clear Clear  
Wind Chill: 11°   Ceiling: Unl
Heat Index: 11°   Visibility: 10mi
Dew Point:   Wind: 0mph
Humidity: 75%   Direction: NA
Pressure: 30.42"   Gusts: NA
Location:  40.18°N, 86.02°W
Report Text: KTYQ 211155Z AUTO 00000KT 10SM CLR M12/M15 A3042 RMK AO2 T11191155 11087 21133
Loading
Personal Weather Stations






























Interactive Weather Map New forecast layout! Learn more

10-Day Weather Forecast

Advertisements
Track Severe Weather on mobile